Time;durP1;ratioP1;P1;durP2;ratioP2;P2;SDS_P1;SDS_P2;PMS_P1;PMS_P2;Temp;Humidity;BMP_temperature;BMP_pressure;BME280_temperature;BME280_humidity;BME280_pressure;Samples;Min_cycle;Max_cycle;Signal;HPM_P1;HPM_P2
2021/11/07 00:00:06;;;;;;;4.72;2.20;;;24.30;63.40;;;;;;4150513;28;20061;-52
2021/11/07 00:02:30;;;;;;;3.88;2.30;;;24.30;63.40;;;;;;4152982;28;20132;-55
2021/11/07 00:04:40;;;;;;;5.53;2.15;;;24.30;63.40;;;;;;4150498;28;20054;-57
2021/11/07 00:07:34;;;;;;;4.38;2.28;;;24.30;63.40;;;;;;4150930;28;20057;-57
2021/11/07 00:09:20;;;;;;;4.50;2.10;;;24.30;63.40;;;;;;4147394;28;20131;-57
2021/11/07 00:11:44;;;;;;;4.60;2.30;;;24.30;63.30;;;;;;4168152;28;20049;-57
2021/11/07 00:13:45;;;;;;;5.32;2.28;;;24.30;63.40;;;;;;4150541;28;20052;-57
2021/11/07 00:15:48;;;;;;;6.07;2.40;;;24.40;63.40;;;;;;4150728;28;20564;-58
2021/11/07 00:17:54;;;;;;;4.63;2.58;;;24.40;63.50;;;;;;4147290;28;20053;-55
2021/11/07 00:20:19;;;;;;;4.43;2.47;;;24.40;63.60;;;;;;4151520;28;20140;-58
2021/11/07 00:24:40;;;;;;;3.60;2.22;;;24.40;63.60;;;;;;4146911;28;20073;-59
2021/11/07 00:26:58;;;;;;;4.43;2.40;;;24.40;63.40;;;;;;4149133;28;20057;-55
2021/11/07 00:29:17;;;;;;;6.00;2.75;;;24.40;63.80;;;;;;4149671;28;20076;-56
2021/11/07 00:33:56;;;;;;;5.05;2.70;;;24.40;63.60;;;;;;4165160;28;21958;-55
2021/11/07 00:38:18;;;;;;;3.75;2.17;;;24.40;62.60;;;;;;4149773;28;20052;-56
2021/11/07 00:42:37;;;;;;;3.73;2.10;;;24.30;62.70;;;;;;4148067;28;20049;-56
2021/11/07 00:44:49;;;;;;;4.90;2.38;;;24.40;62.50;;;;;;4149023;28;20045;-58
2021/11/07 00:46:56;;;;;;;3.53;1.83;;;24.30;62.60;;;;;;4151543;28;20180;-57
2021/11/07 00:51:19;;;;;;;3.33;2.10;;;24.30;63.90;;;;;;4149933;28;20034;-54
2021/11/07 00:53:43;;;;;;;3.28;1.70;;;24.30;63.80;;;;;;4160195;28;20041;-57
2021/11/07 00:56:02;;;;;;;3.40;2.00;;;24.30;63.80;;;;;;4147594;28;20061;-58
2021/11/07 00:58:10;;;;;;;3.47;1.90;;;24.30;63.60;;;;;;4148033;28;20075;-58
2021/11/07 01:02:24;;;;;;;3.92;2.47;;;24.30;62.80;;;;;;4210589;27;20455;-55
2021/11/07 01:04:29;;;;;;;3.33;1.90;;;24.30;63.30;;;;;;4194674;28;20147;-55
2021/11/07 01:06:33;;;;;;;4.05;2.10;;;24.30;63.20;;;;;;4196710;28;20044;-56
2021/11/07 01:08:35;;;;;;;3.83;2.20;;;24.40;63.20;;;;;;4175798;28;20044;-54
2021/11/07 01:10:38;;;;;;;3.85;2.40;;;24.40;62.80;;;;;;4195698;28;20064;-55
2021/11/07 01:12:41;;;;;;;3.63;1.90;;;24.40;63.40;;;;;;4194595;28;20150;-56
2021/11/07 01:14:43;;;;;;;3.55;2.17;;;24.40;63.50;;;;;;4199179;28;20064;-55
2021/11/07 01:16:45;;;;;;;4.28;2.38;;;24.40;63.40;;;;;;4194290;28;20071;-56
2021/11/07 01:18:47;;;;;;;5.10;2.35;;;24.40;63.40;;;;;;4193650;28;20215;-56
2021/11/07 01:20:50;;;;;;;3.63;2.20;;;24.40;63.50;;;;;;4175220;28;20052;-56
2021/11/07 01:24:58;;;;;;;4.18;2.40;;;24.40;63.10;;;;;;4177148;28;20056;-55
2021/11/07 01:29:29;;;;;;;4.28;2.40;;;24.40;62.70;;;;;;4141186;28;20575;-55
2021/11/07 01:31:33;;;;;;;3.15;2.30;;;24.50;62.80;;;;;;4176693;28;20052;-54
2021/11/07 01:33:35;;;;;;;3.20;1.92;;;24.50;62.60;;;;;;4191773;28;20125;-57
2021/11/07 01:35:46;;;;;;;3.80;2.20;;;24.50;62.30;;;;;;4190098;28;20603;-56
2021/11/07 01:44:05;;;;;;;4.45;2.45;;;24.50;61.60;;;;;;4175890;28;20063;-56
2021/11/07 01:46:27;;;;;;;4.22;2.20;;;24.50;61.40;;;;;;4193794;28;20176;-56
2021/11/07 01:48:32;;;;;;;3.03;2.05;;;24.50;61.50;;;;;;4194337;28;20155;-56
2021/11/07 01:50:40;;;;;;;4.60;2.28;;;24.50;61.70;;;;;;4198085;28;20618;-57
2021/11/07 01:52:43;;;;;;;5.82;2.53;;;24.50;61.70;;;;;;4195421;28;20101;-53
2021/11/07 01:56:51;;;;;;;3.97;2.20;;;24.50;62.20;;;;;;4173426;28;20049;-57
2021/11/07 01:58:53;;;;;;;3.95;2.30;;;24.50;62.40;;;;;;4174395;28;20103;-56
2021/11/07 02:00:55;;;;;;;4.68;2.20;;;24.50;63.30;;;;;;4173137;28;20662;-56
2021/11/07 02:02:57;;;;;;;5.22;2.53;;;24.40;62.60;;;;;;4188410;28;20136;-55
2021/11/07 02:05:00;;;;;;;3.22;2.20;;;24.40;62.80;;;;;;4195708;28;20294;-53
2021/11/07 02:07:02;;;;;;;2.78;2.10;;;24.40;63.00;;;;;;4189194;28;20053;-56
2021/11/07 02:09:04;;;;;;;3.13;2.22;;;24.40;63.10;;;;;;4178337;28;20065;-58
2021/11/07 02:11:06;;;;;;;3.17;2.15;;;24.40;63.00;;;;;;4174837;28;20078;-54
2021/11/07 02:13:08;;;;;;;4.50;2.15;;;24.40;63.20;;;;;;4170003;28;20666;-55
2021/11/07 02:15:14;;;;;;;3.25;2.10;;;24.40;63.30;;;;;;4184144;28;20538;-54
2021/11/07 02:17:16;;;;;;;3.95;2.55;;;24.40;63.50;;;;;;4175393;28;20059;-57
2021/11/07 02:19:18;;;;;;;4.95;2.28;;;24.40;63.50;;;;;;4179809;28;20106;-54
2021/11/07 02:21:20;;;;;;;4.00;2.33;;;24.40;63.40;;;;;;4178753;28;20516;-57
2021/11/07 02:23:25;;;;;;;4.07;2.10;;;24.40;63.20;;;;;;4168400;28;20048;-59
2021/11/07 02:25:28;;;;;;;2.95;2.28;;;24.40;63.30;;;;;;4159869;28;20084;-55
2021/11/07 02:27:30;;;;;;;3.78;2.33;;;24.40;63.50;;;;;;4181707;28;20208;-56
2021/11/07 02:29:33;;;;;;;3.55;2.38;;;24.40;64.00;;;;;;4178287;28;20071;-57
2021/11/07 02:31:35;;;;;;;3.88;2.13;;;24.40;63.90;;;;;;4184222;28;20487;-56
2021/11/07 02:33:39;;;;;;;4.68;2.33;;;24.40;64.80;;;;;;4160533;28;20132;-57
2021/11/07 02:35:40;;;;;;;;;;;24.40;64.80;;;;;;4185390;28;20086;-55
2021/11/07 02:37:43;;;;;;;4.10;2.38;;;24.40;64.40;;;;;;4182478;28;19939;-58
2021/11/07 02:39:45;;;;;;;4.38;2.15;;;24.40;64.50;;;;;;4157008;28;20137;-56
2021/11/07 02:41:49;;;;;;;4.20;2.20;;;24.40;64.60;;;;;;4182736;28;20113;-57
2021/11/07 02:43:52;;;;;;;;;;;24.40;64.80;;;;;;4182040;28;20297;-57
2021/11/07 02:45:54;;;;;;;6.53;3.00;;;24.40;64.90;;;;;;4185006;28;20080;-56
2021/11/07 02:47:56;;;;;;;5.25;2.70;;;24.40;65.40;;;;;;4164545;28;20064;-56
2021/11/07 02:49:59;;;;;;;5.75;2.42;;;24.40;65.70;;;;;;4182838;28;20063;-55
2021/11/07 02:52:03;;;;;;;4.88;2.55;;;24.40;65.90;;;;;;4161007;28;20117;-57
2021/11/07 02:54:07;;;;;;;4.07;2.35;;;24.40;66.10;;;;;;4182716;28;20569;-55
2021/11/07 02:56:10;;;;;;;4.45;2.25;;;24.40;66.10;;;;;;4178674;28;20049;-55
2021/11/07 02:58:12;;;;;;;4.50;2.75;;;24.40;65.90;;;;;;4182119;28;20082;-57
2021/11/07 03:00:17;;;;;;;4.00;2.33;;;24.40;66.00;;;;;;4161461;28;20053;-56
2021/11/07 03:02:19;;;;;;;3.83;2.30;;;24.40;66.10;;;;;;4164763;28;20088;-56
2021/11/07 03:04:22;;;;;;;4.10;2.40;;;24.40;66.30;;;;;;4164467;28;20463;-57
2021/11/07 03:06:24;;;;;;;4.03;2.22;;;24.40;66.50;;;;;;4163155;28;20065;-54
2021/11/07 03:08:26;;;;;;;3.20;2.20;;;24.40;66.40;;;;;;4161027;28;20048;-55
2021/11/07 03:10:31;;;;;;;4.47;2.35;;;24.40;66.70;;;;;;4162041;28;20527;-57
2021/11/07 03:12:33;;;;;;;4.03;2.22;;;24.40;66.80;;;;;;4164107;28;20530;-55
2021/11/07 03:14:40;;;;;;;3.58;2.40;;;24.40;67.00;;;;;;4162114;28;20048;-57
2021/11/07 03:16:44;;;;;;;4.28;2.58;;;24.40;66.90;;;;;;4168716;28;20052;-56
2021/11/07 03:18:46;;;;;;;6.43;2.90;;;24.40;67.10;;;;;;4163394;28;20049;-55
2021/11/07 03:20:48;;;;;;;4.20;2.60;;;24.40;67.40;;;;;;4163978;28;20049;-57
2021/11/07 03:22:50;;;;;;;4.90;2.58;;;24.40;67.80;;;;;;4160531;28;20055;-58
2021/11/07 03:24:56;;;;;;;4.50;2.60;;;24.40;68.00;;;;;;4162657;28;20045;-55
2021/11/07 03:26:58;;;;;;;5.07;3.05;;;24.40;68.10;;;;;;4162165;28;20807;-57
2021/11/07 03:29:03;;;;;;;4.82;2.85;;;24.40;68.30;;;;;;4165258;28;20712;-55
2021/11/07 03:31:15;;;;;;;5.03;2.50;;;24.40;68.40;;;;;;4164875;28;20049;-55
2021/11/07 03:33:28;;;;;;;4.80;2.70;;;24.40;68.40;;;;;;4164988;28;20564;-55
2021/11/07 03:35:31;;;;;;;3.63;2.47;;;24.40;68.60;;;;;;4166645;28;20040;-55
2021/11/07 03:37:43;;;;;;;4.70;2.58;;;24.40;68.70;;;;;;4157277;28;20103;-55
2021/11/07 03:39:46;;;;;;;3.85;2.40;;;24.40;68.80;;;;;;4170062;28;20741;-55
2021/11/07 03:41:48;;;;;;;4.80;2.65;;;24.40;68.80;;;;;;4160828;28;20045;-55
2021/11/07 03:43:50;;;;;;;4.28;2.63;;;24.40;68.80;;;;;;4163560;28;20194;-55
2021/11/07 03:45:53;;;;;;;3.58;2.25;;;24.40;68.80;;;;;;4163184;28;20052;-56
2021/11/07 03:47:55;;;;;;;4.53;2.80;;;24.40;68.90;;;;;;4163620;28;20114;-55
2021/11/07 03:49:58;;;;;;;3.97;2.45;;;24.40;68.80;;;;;;4165560;28;20057;-55
2021/11/07 03:52:00;;;;;;;4.97;2.47;;;24.40;69.00;;;;;;4145219;28;20151;-53
2021/11/07 03:54:04;;;;;;;3.95;2.42;;;24.40;68.90;;;;;;4161643;28;20045;-55
2021/11/07 03:56:07;;;;;;;3.88;2.58;;;24.40;68.80;;;;;;4161711;28;20041;-56
2021/11/07 03:58:10;;;;;;;3.90;2.50;;;24.40;68.80;;;;;;4166372;28;20045;-56
2021/11/07 04:02:14;;;;;;;5.72;2.88;;;24.40;68.20;;;;;;4202526;27;20414;-53
2021/11/07 04:04:17;;;;;;;6.07;2.75;;;24.40;68.80;;;;;;4186939;28;20057;-57
2021/11/07 04:06:19;;;;;;;3.53;2.60;;;24.40;68.80;;;;;;4179330;28;20107;-55
2021/11/07 04:08:21;;;;;;;4.50;2.40;;;24.40;68.70;;;;;;4213552;28;20292;-56
2021/11/07 04:10:24;;;;;;;5.30;2.72;;;24.40;68.80;;;;;;4173334;28;20808;-54
2021/11/07 04:12:26;;;;;;;5.27;3.03;;;24.50;68.70;;;;;;4193266;28;20267;-50
2021/11/07 04:14:33;;;;;;;4.55;2.55;;;24.50;68.60;;;;;;4159587;28;20059;-55
2021/11/07 04:16:37;;;;;;;4.55;2.72;;;24.40;68.30;;;;;;4161018;28;20512;-56
2021/11/07 04:18:40;;;;;;;3.78;2.45;;;24.50;68.30;;;;;;4161668;28;20060;-55
2021/11/07 04:20:43;;;;;;;4.85;2.88;;;24.40;68.10;;;;;;4191460;28;20056;-55
2021/11/07 04:22:46;;;;;;;4.25;2.75;;;24.50;68.10;;;;;;4191406;28;20136;-52
2021/11/07 04:24:49;;;;;;;4.10;2.58;;;24.50;68.00;;;;;;4145346;28;20061;-54
2021/11/07 04:26:51;;;;;;;5.28;2.58;;;24.50;67.90;;;;;;4193154;28;20060;-55
2021/11/07 04:28:53;;;;;;;4.30;2.90;;;24.50;67.90;;;;;;4157102;28;20076;-52
2021/11/07 04:30:57;;;;;;;3.58;2.53;;;24.50;67.80;;;;;;4158795;28;20077;-55
2021/11/07 04:32:59;;;;;;;5.22;2.92;;;24.50;67.70;;;;;;4191242;28;20515;-56
2021/11/07 04:35:02;;;;;;;4.82;2.97;;;24.50;67.70;;;;;;4188544;28;20754;-54
2021/11/07 04:37:04;;;;;;;4.40;2.60;;;24.50;67.70;;;;;;4161784;28;20065;-56
2021/11/07 04:39:07;;;;;;;4.90;2.53;;;24.50;67.70;;;;;;4156713;28;20045;-55
2021/11/07 04:41:16;;;;;;;4.57;2.72;;;24.50;67.70;;;;;;4141964;28;20160;-54
2021/11/07 04:43:19;;;;;;;4.78;2.97;;;24.50;67.70;;;;;;4160288;28;20107;-55
2021/11/07 04:45:22;;;;;;;4.65;2.83;;;24.60;67.70;;;;;;4160019;28;20442;-57
2021/11/07 04:47:24;;;;;;;8.43;3.45;;;24.60;67.70;;;;;;4161040;28;20065;-56
2021/11/07 04:49:27;;;;;;;5.85;3.03;;;24.50;67.60;;;;;;4160462;28;20057;-55
2021/11/07 04:51:29;;;;;;;5.07;2.92;;;24.60;67.50;;;;;;4173266;28;20072;-56
2021/11/07 04:53:31;;;;;;;4.80;3.30;;;24.50;68.20;;;;;;4162489;28;20130;-55
2021/11/07 04:55:36;;;;;;;4.38;3.20;;;24.50;67.70;;;;;;4192340;28;20891;-57
2021/11/07 04:57:42;;;;;;;4.70;2.60;;;24.60;67.80;;;;;;4159097;28;21457;-54
2021/11/07 04:59:44;;;;;;;4.50;3.03;;;24.50;67.70;;;;;;4143874;28;20077;-57
2021/11/07 05:01:47;;;;;;;5.22;2.67;;;24.50;67.60;;;;;;4160498;28;20169;-55
2021/11/07 05:03:49;;;;;;;4.07;2.88;;;24.50;67.40;;;;;;4190167;28;20098;-54
2021/11/07 05:05:51;;;;;;;4.10;2.95;;;24.40;67.30;;;;;;4164104;28;20397;-56
2021/11/07 05:07:55;;;;;;;3.80;2.80;;;24.50;67.10;;;;;;4190159;28;20064;-56
2021/11/07 05:09:57;;;;;;;4.32;2.67;;;24.40;67.00;;;;;;4164165;28;20143;-56
2021/11/07 05:12:00;;;;;;;3.75;2.63;;;24.40;66.80;;;;;;4191355;28;20066;-56
2021/11/07 05:14:02;;;;;;;3.42;2.20;;;24.40;66.70;;;;;;4151704;28;20057;-55
2021/11/07 05:16:04;;;;;;;3.40;2.40;;;24.40;66.60;;;;;;4151763;28;20111;-54
2021/11/07 05:18:07;;;;;;;4.72;2.42;;;24.40;66.50;;;;;;4150823;28;20071;-56
2021/11/07 05:20:10;;;;;;;3.85;2.50;;;24.40;66.50;;;;;;4178648;28;20080;-56
2021/11/07 05:22:12;;;;;;;3.50;2.40;;;24.40;66.50;;;;;;4150338;28;20434;-55
2021/11/07 05:24:15;;;;;;;4.13;2.30;;;24.40;66.40;;;;;;4153398;28;20247;-57
2021/11/07 05:26:17;;;;;;;3.58;2.45;;;24.40;66.20;;;;;;4150635;28;20394;-59
2021/11/07 05:28:19;;;;;;;4.32;2.50;;;24.40;66.20;;;;;;4141703;28;20060;-57
2021/11/07 05:30:22;;;;;;;3.80;2.50;;;24.40;66.10;;;;;;4140991;28;20049;-56
2021/11/07 05:32:24;;;;;;;4.25;2.50;;;24.30;66.10;;;;;;4146295;28;20072;-55
2021/11/07 05:34:28;;;;;;;4.17;2.67;;;24.30;66.00;;;;;;4179115;28;20051;-58
2021/11/07 05:36:31;;;;;;;;;;;24.30;66.10;;;;;;4152007;28;20310;-55
2021/11/07 05:38:33;;;;;;;3.65;2.72;;;24.30;66.10;;;;;;4148903;28;20321;-57
2021/11/07 05:40:36;;;;;;;3.53;2.50;;;24.30;66.20;;;;;;4150709;28;20607;-55
2021/11/07 05:42:38;;;;;;;4.07;2.50;;;24.30;66.50;;;;;;4183175;28;20058;-57
2021/11/07 05:44:40;;;;;;;3.83;2.58;;;24.30;66.50;;;;;;4149684;28;20306;-56
2021/11/07 05:46:44;;;;;;;3.97;2.90;;;24.30;66.50;;;;;;4150566;28;20068;-56
2021/11/07 05:48:46;;;;;;;3.30;2.25;;;24.30;66.40;;;;;;4179675;28;20087;-56
2021/11/07 05:50:49;;;;;;;3.88;2.50;;;24.20;66.20;;;;;;4145375;28;20049;-56
2021/11/07 05:52:52;;;;;;;3.97;2.30;;;24.30;66.80;;;;;;4143282;28;20056;-56
2021/11/07 05:54:55;;;;;;;3.88;2.30;;;24.20;66.10;;;;;;4144732;28;20076;-55
2021/11/07 05:56:58;;;;;;;3.80;2.20;;;24.20;66.20;;;;;;4141706;28;20598;-56
2021/11/07 05:59:00;;;;;;;2.90;2.10;;;24.20;66.10;;;;;;4173870;28;20128;-57
2021/11/07 06:01:03;;;;;;;3.30;2.53;;;24.20;66.20;;;;;;4177422;28;22107;-57
2021/11/07 06:03:06;;;;;;;3.75;2.55;;;24.20;66.20;;;;;;4145929;28;20128;-56
2021/11/07 06:05:08;;;;;;;;;;;24.20;66.30;;;;;;4150462;28;20111;-55
2021/11/07 06:07:11;;;;;;;4.82;2.55;;;24.20;66.40;;;;;;4144995;28;19925;-56
2021/11/07 06:09:13;;;;;;;4.15;2.22;;;24.20;66.40;;;;;;4148049;28;20077;-57
2021/11/07 06:11:16;;;;;;;3.40;2.00;;;24.20;66.40;;;;;;4178258;28;20048;-57
2021/11/07 06:13:18;;;;;;;4.45;2.50;;;24.20;66.50;;;;;;4145060;28;20888;-56
2021/11/07 06:15:20;;;;;;;3.70;2.47;;;24.20;66.70;;;;;;4143846;28;20054;-55
2021/11/07 06:17:22;;;;;;;4.95;2.22;;;24.20;66.70;;;;;;4180615;28;20083;-54
2021/11/07 06:19:24;;;;;;;5.07;2.50;;;24.20;66.60;;;;;;4149361;28;20046;-56
2021/11/07 06:21:28;;;;;;;3.85;2.25;;;24.20;66.50;;;;;;4150611;28;20563;-56
2021/11/07 06:23:32;;;;;;;5.28;2.58;;;24.20;66.60;;;;;;4180645;28;20059;-54
2021/11/07 06:25:34;;;;;;;3.33;2.30;;;24.20;66.50;;;;;;4150486;28;20591;-55
2021/11/07 06:27:36;;;;;;;3.60;2.25;;;24.20;66.50;;;;;;4179325;28;20075;-55
2021/11/07 06:29:41;;;;;;;3.30;2.38;;;24.20;66.40;;;;;;4149842;28;20057;-54
2021/11/07 06:31:44;;;;;;;3.50;2.40;;;24.20;66.40;;;;;;4144777;28;20058;-54
2021/11/07 06:33:46;;;;;;;5.60;2.40;;;24.20;66.50;;;;;;4144970;28;20656;-56
2021/11/07 06:35:48;;;;;;;3.78;2.53;;;24.20;66.40;;;;;;4148708;28;20049;-56
2021/11/07 06:37:50;;;;;;;5.78;2.90;;;24.20;66.40;;;;;;4179612;28;20146;-57
2021/11/07 06:39:52;;;;;;;5.03;3.10;;;24.20;66.40;;;;;;4149554;28;20073;-57
2021/11/07 06:41:55;;;;;;;6.22;3.78;;;24.20;66.50;;;;;;4179934;28;20052;-57
2021/11/07 06:43:57;;;;;;;9.83;4.70;;;24.20;66.70;;;;;;4148723;28;20052;-57
2021/11/07 06:45:59;;;;;;;11.57;6.00;;;24.20;66.70;;;;;;4146533;28;20144;-56
2021/11/07 06:48:02;;;;;;;11.23;5.85;;;24.20;66.70;;;;;;4146233;28;20076;-56
2021/11/07 06:50:06;;;;;;;9.52;5.43;;;24.20;66.70;;;;;;4176508;28;20142;-57
2021/11/07 06:52:08;;;;;;;9.38;5.45;;;24.10;66.70;;;;;;4145265;28;20068;-57
2021/11/07 06:54:10;;;;;;;10.43;5.20;;;24.10;66.80;;;;;;4150448;28;20052;-57
2021/11/07 06:56:12;;;;;;;11.00;5.13;;;24.10;66.80;;;;;;4177822;28;20145;-56
2021/11/07 06:58:14;;;;;;;8.27;4.73;;;24.10;66.70;;;;;;4150270;28;20712;-58
2021/11/07 07:02:12;;;;;;;9.98;4.97;;;24.10;66.10;;;;;;4198463;27;20434;-57
2021/11/07 07:04:14;;;;;;;6.35;4.25;;;24.10;66.70;;;;;;4184371;28;20045;-59
2021/11/07 07:06:17;;;;;;;7.50;4.18;;;24.10;66.70;;;;;;4187950;28;20551;-58
2021/11/07 07:08:22;;;;;;;6.80;4.03;;;24.10;66.70;;;;;;4180965;28;20063;-58
2021/11/07 07:10:31;;;;;;;7.95;4.97;;;24.10;66.70;;;;;;4186813;28;20052;-58
2021/11/07 07:12:48;;;;;;;7.13;4.03;;;24.10;66.80;;;;;;4178610;28;20428;-58
2021/11/07 07:15:12;;;;;;;7.72;4.55;;;24.10;67.00;;;;;;4172201;28;20138;-55
2021/11/07 07:21:37;;;;;;;6.65;3.55;;;24.10;66.70;;;;;;4174489;28;20052;-56
2021/11/07 07:24:18;;;;;;;6.13;3.00;;;24.10;66.70;;;;;;4185389;28;20171;-58
2021/11/07 07:32:52;;;;;;;6.75;3.50;;;24.10;67.30;;;;;;4179438;28;20784;-59
2021/11/07 07:34:57;;;;;;;5.05;3.47;;;24.10;67.50;;;;;;4178716;28;20059;-59
2021/11/07 07:37:00;;;;;;;6.53;3.30;;;24.10;68.30;;;;;;4177391;28;20076;-60
2021/11/07 07:39:03;;;;;;;4.80;2.88;;;24.10;67.70;;;;;;4168389;28;20060;-59
2021/11/07 07:41:05;;;;;;;5.32;3.13;;;24.10;67.40;;;;;;4171764;28;20445;-59
2021/11/07 07:43:07;;;;;;;4.95;3.03;;;24.10;67.40;;;;;;4174160;28;20045;-59
2021/11/07 07:45:10;;;;;;;5.38;3.50;;;24.10;67.70;;;;;;4173584;28;20076;-59
2021/11/07 07:47:12;;;;;;;8.45;3.15;;;24.20;67.70;;;;;;4155105;28;20045;-59
2021/11/07 07:49:17;;;;;;;4.87;2.83;;;24.10;67.50;;;;;;4159310;28;20469;-59
2021/11/07 07:51:20;;;;;;;5.22;2.85;;;24.20;67.60;;;;;;4161747;28;20052;-59
2021/11/07 07:53:24;;;;;;;4.55;2.90;;;24.20;67.60;;;;;;4182110;28;20175;-59
2021/11/07 07:55:26;;;;;;;5.15;2.83;;;24.20;68.30;;;;;;4166541;28;20601;-59
2021/11/07 07:57:28;;;;;;;4.97;2.70;;;24.20;67.60;;;;;;4166129;28;20048;-58
2021/11/07 07:59:30;;;;;;;4.65;2.58;;;24.20;67.40;;;;;;4164214;28;20091;-57
2021/11/07 08:01:34;;;;;;;4.60;3.03;;;24.20;67.30;;;;;;4169606;28;20195;-57
2021/11/07 08:03:36;;;;;;;4.55;2.88;;;24.20;67.20;;;;;;4173574;28;20051;-59
2021/11/07 08:05:39;;;;;;;4.30;2.50;;;24.30;66.90;;;;;;4171556;28;20167;-59
2021/11/07 08:07:44;;;;;;;5.63;2.78;;;24.30;66.70;;;;;;4177364;28;20163;-59
2021/11/07 08:09:46;;;;;;;5.65;2.50;;;24.30;66.50;;;;;;4176397;28;20754;-59
2021/11/07 08:11:48;;;;;;;4.55;2.45;;;24.30;66.50;;;;;;4173452;28;20147;-59
2021/11/07 08:13:53;;;;;;;6.07;2.65;;;24.40;66.40;;;;;;4156130;28;20144;-59
2021/11/07 08:15:55;;;;;;;4.13;2.70;;;24.40;66.20;;;;;;4144093;28;20056;-58
2021/11/07 08:17:58;;;;;;;5.72;2.67;;;24.40;66.20;;;;;;4161609;28;20140;-59
2021/11/07 08:20:03;;;;;;;4.33;2.70;;;24.40;66.10;;;;;;4160688;28;20094;-59
2021/11/07 08:22:05;;;;;;;4.70;2.53;;;24.40;66.00;;;;;;4165082;28;20314;-59
2021/11/07 08:24:10;;;;;;;4.75;2.17;;;24.40;65.90;;;;;;4164824;28;20106;-60
2021/11/07 08:26:13;;;;;;;4.20;2.28;;;24.40;65.90;;;;;;4160781;28;20943;-59
2021/11/07 08:28:18;;;;;;;3.25;2.10;;;24.40;65.90;;;;;;4161687;28;20045;-59
2021/11/07 08:30:25;;;;;;;2.97;2.30;;;24.40;65.90;;;;;;4177117;28;20767;-62
2021/11/07 08:32:28;;;;;;;3.88;2.47;;;24.40;66.20;;;;;;4160540;28;20076;-59
2021/11/07 08:34:31;;;;;;;4.00;2.13;;;24.40;65.80;;;;;;4164318;28;20055;-59
2021/11/07 08:36:50;;;;;;;5.55;2.70;;;24.40;65.70;;;;;;4161460;28;20396;-59
2021/11/07 08:38:58;;;;;;;4.22;2.38;;;24.40;65.70;;;;;;4166715;28;20099;-61
2021/11/07 08:41:01;;;;;;;6.18;2.63;;;24.40;65.80;;;;;;4170620;28;20059;-66
2021/11/07 09:00:15;;;;;;;15.70;3.00;;;24.60;66.50;;;;;;4151139;28;20049;-65
2021/11/07 09:01:54;;;;;;;14.10;3.15;;;24.60;66.40;;;;;;4153485;28;20048;-66
2021/11/07 09:08:26;;;;;;;10.15;2.70;;;24.60;66.20;;;;;;4168767;28;20045;-68
2021/11/07 09:10:32;;;;;;;5.93;2.63;;;24.70;66.40;;;;;;4152196;28;20079;-66
2021/11/07 09:12:35;;;;;;;5.55;2.58;;;24.70;66.30;;;;;;4146537;28;20061;-68
2021/11/07 09:14:38;;;;;;;5.07;2.05;;;24.70;66.20;;;;;;4154545;28;20923;-64
2021/11/07 09:16:41;;;;;;;7.78;2.25;;;24.70;66.20;;;;;;4154156;28;20447;-67
2021/11/07 09:18:44;;;;;;;4.55;1.92;;;24.70;66.20;;;;;;4155281;28;21005;-67
2021/11/07 09:23:17;;;;;;;2.70;1.83;;;24.70;66.00;;;;;;4157120;28;19929;-68
2021/11/07 09:25:30;;;;;;;2.67;1.70;;;24.70;65.90;;;;;;4153425;28;20075;-67
2021/11/07 09:27:42;;;;;;;3.63;2.00;;;24.80;66.00;;;;;;4159524;28;20107;-60
2021/11/07 09:29:48;;;;;;;3.53;2.10;;;24.80;66.00;;;;;;4162377;28;20595;-60
2021/11/07 09:32:09;;;;;;;3.67;2.25;;;24.80;65.60;;;;;;4158936;28;20083;-57
2021/11/07 09:34:21;;;;;;;4.40;2.33;;;24.80;65.40;;;;;;4160474;28;20084;-55
2021/11/07 09:36:28;;;;;;;4.82;2.38;;;24.80;65.50;;;;;;4159482;28;20117;-58
2021/11/07 09:38:33;;;;;;;3.28;2.35;;;24.80;65.60;;;;;;4159154;28;20182;-59
2021/11/07 09:40:43;;;;;;;5.32;2.33;;;24.80;65.70;;;;;;4161109;28;20654;-59
2021/11/07 09:44:55;;;;;;;3.30;2.28;;;24.80;66.00;;;;;;4161152;28;20049;-58
2021/11/07 09:47:03;;;;;;;3.75;2.40;;;24.80;66.00;;;;;;4150058;28;20112;-64
2021/11/07 09:49:17;;;;;;;4.03;2.53;;;24.80;66.00;;;;;;4163004;28;20117;-65
2021/11/07 09:51:21;;;;;;;9.55;2.50;;;24.80;66.00;;;;;;4159859;28;20270;-60
2021/11/07 09:53:24;;;;;;;3.40;2.22;;;24.80;65.80;;;;;;4155480;28;20121;-66
2021/11/07 09:55:28;;;;;;;3.70;2.30;;;24.80;65.80;;;;;;4156263;28;20049;-62
2021/11/07 09:57:33;;;;;;;3.95;2.30;;;24.80;65.70;;;;;;4159932;28;20049;-62
2021/11/07 09:59:35;;;;;;;3.45;2.30;;;24.80;65.60;;;;;;4159784;28;20122;-63
2021/11/07 10:02:13;;;;;;;5.45;2.30;;;24.80;65.20;;;;;;4139437;28;20564;-61
2021/11/07 10:04:15;;;;;;;3.22;2.40;;;24.80;65.70;;;;;;4118899;28;20042;-62
2021/11/07 10:06:34;;;;;;;3.10;2.08;;;24.80;65.60;;;;;;4138181;28;20061;-63
2021/11/07 10:08:43;;;;;;;3.78;2.22;;;24.80;65.70;;;;;;4118905;28;20046;-63
2021/11/07 10:11:04;;;;;;;9.88;2.50;;;24.90;65.50;;;;;;4133492;28;20138;-64
2021/11/07 10:13:20;;;;;;;8.07;2.30;;;24.90;65.70;;;;;;4134171;28;20049;-64
2021/11/07 10:15:39;;;;;;;3.47;2.13;;;24.90;65.60;;;;;;4136659;28;20100;-64
2021/11/07 10:17:50;;;;;;;7.10;2.40;;;24.90;65.70;;;;;;4132781;28;20056;-65
2021/11/07 10:20:11;;;;;;;4.22;2.38;;;24.90;65.70;;;;;;4135967;28;20054;-64
2021/11/07 10:22:23;;;;;;;4.25;1.95;;;24.90;65.60;;;;;;4133677;28;20054;-66
2021/11/07 10:24:34;;;;;;;4.68;2.22;;;24.90;65.60;;;;;;4135829;28;20633;-64
2021/11/07 10:26:42;;;;;;;4.70;1.90;;;24.90;65.50;;;;;;4132678;28;20045;-62
2021/11/07 10:28:50;;;;;;;6.03;2.25;;;24.90;65.50;;;;;;4135394;28;20053;-60
2021/11/07 10:31:06;;;;;;;3.80;2.13;;;24.90;65.50;;;;;;4135470;28;20659;-60
2021/11/07 10:33:34;;;;;;;7.90;2.28;;;24.90;65.30;;;;;;4135074;28;20119;-61
2021/11/07 10:38:02;;;;;;;5.70;2.20;;;24.90;65.30;;;;;;4133426;28;20049;-62
2021/11/07 10:42:24;;;;;;;3.20;2.00;;;24.90;65.20;;;;;;4133470;28;20068;-62
2021/11/07 10:46:58;;;;;;;4.07;1.95;;;24.90;65.00;;;;;;4133357;28;20053;-62
2021/11/07 10:53:48;;;;;;;3.00;1.70;;;24.90;65.20;;;;;;4134617;28;20046;-63
2021/11/07 10:55:54;;;;;;;3.40;1.90;;;24.90;65.00;;;;;;4134209;28;20049;-63
2021/11/07 10:58:00;;;;;;;10.07;2.47;;;24.90;65.10;;;;;;4135697;28;20209;-63
2021/11/07 11:00:27;;;;;;;4.55;2.10;;;24.90;65.30;;;;;;4137690;28;20053;-60
2021/11/07 11:02:42;;;;;;;4.93;1.98;;;24.90;64.60;;;;;;4134944;28;20058;-61
2021/11/07 11:05:02;;;;;;;3.65;2.00;;;24.90;64.40;;;;;;4137189;28;20651;-61
2021/11/07 11:07:11;;;;;;;4.18;2.33;;;24.90;64.50;;;;;;4136132;28;20050;-61
2021/11/07 11:09:19;;;;;;;4.93;2.08;;;24.90;64.60;;;;;;4139235;28;20500;-61
2021/11/07 11:11:31;;;;;;;3.00;2.17;;;24.80;64.70;;;;;;4135032;28;20233;-61
2021/11/07 11:13:53;;;;;;;6.68;2.70;;;24.80;64.70;;;;;;4116578;28;20054;-64
2021/11/07 11:18:56;;;;;;;9.65;2.45;;;24.80;65.90;;;;;;4125054;28;21492;-62
2021/11/07 11:23:45;;;;;;;5.25;2.22;;;24.80;66.40;;;;;;4125377;28;20167;-60
2021/11/07 11:25:56;;;;;;;4.22;1.98;;;24.80;66.40;;;;;;4123719;28;20467;-61
2021/11/07 11:32:41;;;;;;;5.53;1.95;;;24.80;66.30;;;;;;4127319;28;20049;-62
2021/11/07 11:34:56;;;;;;;6.57;2.10;;;24.90;66.30;;;;;;4128466;28;20093;-61
2021/11/07 11:37:20;;;;;;;3.63;2.13;;;24.80;66.20;;;;;;4130349;28;20547;-62
2021/11/07 11:39:28;;;;;;;4.13;2.20;;;24.80;66.20;;;;;;4128468;28;20050;-67
2021/11/07 11:43:54;;;;;;;5.38;2.20;;;24.90;66.20;;;;;;4129765;28;20073;-64
2021/11/07 11:46:10;;;;;;;5.38;2.22;;;24.90;66.20;;;;;;4128217;28;20147;-65
2021/11/07 11:51:21;;;;;;;4.72;2.03;;;24.90;66.20;;;;;;4111286;28;20141;-64
2021/11/07 11:53:39;;;;;;;6.07;2.10;;;24.90;66.20;;;;;;4127199;28;20046;-65
2021/11/07 12:00:36;;;;;;;5.72;2.30;;;24.90;66.10;;;;;;4127582;28;20046;-67
2021/11/07 12:03:28;;;;;;;3.83;1.90;;;24.90;66.00;;;;;;4123265;28;20478;-65
2021/11/07 12:05:19;;;;;;;6.95;2.20;;;24.90;66.00;;;;;;4118198;28;20054;-68
2021/11/07 12:07:25;;;;;;;3.67;2.08;;;24.90;65.90;;;;;;4128451;28;20056;-67
2021/11/07 12:09:39;;;;;;;5.55;2.15;;;24.90;66.10;;;;;;4126460;28;20125;-65
2021/11/07 12:11:55;;;;;;;7.47;2.33;;;24.90;66.10;;;;;;4126138;28;20085;-66
2021/11/07 12:18:17;;;;;;;2.75;2.00;;;24.90;66.00;;;;;;4126576;28;20045;-64
2021/11/07 12:20:22;;;;;;;6.45;2.55;;;24.90;66.00;;;;;;4129937;28;20104;-64
2021/11/07 12:22:30;;;;;;;5.57;1.98;;;24.80;65.90;;;;;;4125999;28;20075;-69
2021/11/07 12:24:50;;;;;;;4.68;1.80;;;24.90;66.00;;;;;;4125870;28;20488;-68
2021/11/07 12:27:13;;;;;;;3.72;1.83;;;24.90;66.00;;;;;;4124117;28;20244;-62
2021/11/07 12:29:39;;;;;;;8.20;2.47;;;24.80;66.00;;;;;;4130005;28;20046;-62
2021/11/07 12:32:06;;;;;;;5.05;2.20;;;24.90;66.00;;;;;;4130324;28;20460;-62
2021/11/07 12:34:16;;;;;;;8.50;1.90;;;24.80;65.80;;;;;;4113138;28;20137;-62
2021/11/07 12:41:12;;;;;;;3.13;1.60;;;24.80;65.80;;;;;;4126236;28;20144;-61
2021/11/07 12:43:38;;;;;;;4.85;1.75;;;24.80;65.80;;;;;;4129319;28;20061;-62
2021/11/07 12:45:44;;;;;;;5.40;1.85;;;24.80;65.80;;;;;;4129688;28;20940;-61